Home > Products > Valid Products > TAF

000
FTUS44 KBRO 271735
TAFBRO
TAF
KBRO 271735Z 2718/2818 17020G26KT P6SM SCT025 BKN040
      TEMPO 2718/2720 BKN025
     FM280000 14015KT P6SM SCT035
     FM280400 15010KT P6SM BKN020
     FM281400 15015KT P6SM BKN025=



000
FTUS44 KBRO 271735
TAFHRL
TAF
KHRL 271735Z 2718/2818 18022G27KT P6SM SCT025 BKN040
     FM280000 14015KT P6SM SCT035
     FM280400 15010KT P6SM BKN020
     FM281400 15015KT P6SM BKN025=



000
FTUS44 KBRO 271735
TAFMFE
TAF
KMFE 271735Z 2718/2818 16017G21KT P6SM SCT050
     FM280400 14010KT P6SM BKN020
     FM281400 14015KT P6SM SCT035=



000
FTUS44 KBRO 271120
TAFMFE
TAF
KMFE 271120Z 2712/2812 16011KT P6SM SCT050
     FM271500 15018G24KT P6SM SCT025 BKN250
      TEMPO 2715/2718 BKN025
     FM280900 14010KT P6SM BKN050=



000
FTUS44 KBRO 271120
TAFHRL
TAF
KHRL 271120Z 2712/2812 17018KT P6SM BKN013
     FM271500 15018G24KT P6SM SCT025 BKN250
      TEMPO 2715/2718 BKN025
     FM280900 15010KT P6SM BKN050=



000
FTUS44 KBRO 271120
TAFBRO
TAF
KBRO 271120Z 2712/2812 17015G23KT P6SM BKN013 OVC022
     FM271500 15018G24KT P6SM SCT025 BKN250
      TEMPO 2715/2718 BKN025
     FM280900 14010KT P6SM BKN050=



000
FTUS44 KBRO 270657 AAA
TAFHRL
TAF AMD
KHRL 270657Z 2707/2806 15020G27KT P6SM FEW050 SCT090 SCT120
     FM270900 16012KT P6SM VCSH OVC025
     FM271500 15018G24KT P6SM SCT025 BKN040
     FM280000 16016KT P6SM SCT040 BKN250=



000
FTUS44 KBRO 270657 AAB
TAFMFE
TAF AMD
KMFE 270657Z 2707/2806 17019G29KT P6SM FEW012
     FM270900 14012KT P6SM VCSH OVC025
     FM271500 15018G24KT P6SM SCT025 BKN040
     FM280000 13016KT P6SM SCT040 BKN250=



000
FTUS44 KBRO 270601 AAB
TAFBRO
TAF AMD
KBRO 270601Z 2706/2806 14011KT P6SM BKN100
     FM270900 15012KT P6SM VCSH OVC025
     FM271500 15018G24KT P6SM SCT025 BKN040
     FM280000 14016KT P6SM SCT040 BKN250=



000
FTUS44 KBRO 270520
TAFMFE
TAF
KMFE 270520Z 2706/2806 15013KT P6SM FEW110
     FM270900 14012KT P6SM VCSH OVC025
     FM271500 15018G24KT P6SM SCT025 BKN040
     FM280000 13016KT P6SM SCT040 BKN250=



000
FTUS44 KBRO 270458 AAB
TAFBRO
TAF AMD
KBRO 270458Z 2705/2724 16007KT P6SM OVC016
     FM271600 16018G24KT P6SM SCT025 BKN040
     FM272200 14016KT P6SM SCT040 BKN250=



000
FTUS44 KBRO 270313 AAA
TAFHRL
TAF AMD
KHRL 270313Z 2703/2724 18010KT P6SM OVC250
     FM270700 16009KT P6SM OVC015
     FM271600 16018G24KT P6SM SCT025 BKN040
     FM272200 14016KT P6SM SCT040 BKN250=



000
FTUS44 KBRO 270313 AAA
TAFBRO
TAF AMD
KBRO 270313Z 2703/2724 18011KT P6SM SCT015 OVC250
     FM270700 15009KT P6SM OVC015
     FM271600 16018G24KT P6SM SCT025 BKN040
     FM272200 14016KT P6SM SCT040 BKN250=



000
FTUS44 KBRO 262323
TAFHRL
TAF
KHRL 262323Z 2700/2724 16020KT P6SM FEW035
     FM270200 14014G20KT P6SM SCT025
     FM270400 14011KT P6SM BKN025
     FM271000 15009KT P6SM OVC015
     FM271600 16018G24KT P6SM SCT025 BKN040
     FM272200 14016KT P6SM SCT040 BKN250=



000
FTUS44 KBRO 262323
TAFMFE
TAF
KMFE 262323Z 2700/2724 15018G25KT P6SM BKN035
     FM270300 14010KT P6SM VCSH BKN025
     FM271000 15009KT 6SM HZ BR OVC012
     FM271600 16016G22KT P6SM VCSH SCT025 BKN035
     FM272200 14016KT P6SM SCT040 BKN250=



000
FTUS44 KBRO 262323
TAFBRO
TAF
KBRO 262323Z 2700/2724 16018KT P6SM FEW028
     FM270200 14012G18KT P6SM SCT025
     FM270330 14011KT P6SM BKN025
     FM271000 15009KT P6SM OVC015
     FM271600 16018G24KT P6SM SCT025 BKN040
     FM272200 14016KT P6SM SCT040 BKN250=



000
FTUS44 KBRO 262054 AAB
TAFMFE
TAF AMD
KMFE 262054Z 2621/2718 15016G28KT P6SM FEW035 BKN250
     FM270230 14010KT P6SM VCSH BKN020 PROB30 2706/2710 4SM -TSRA
      BKN015CB
     FM271000 15009KT P6SM OVC012
      TEMPO 2711/2714 3SM BR BKN008
     FM271600 16018G24KT P6SM VCSH SCT025 BKN035=



000
FTUS44 KBRO 262049 AAC
TAFHRL
TAF AMD
KHRL 262049Z 2621/2718 17020G27KT P6SM FEW035 OVC200
     FM270200 14012G18KT P6SM SCT020 BKN030
     FM270400 14010KT P6SM VCSH BKN020 PROB30 2706/2710 4SM -TSRA
      BKN015CB
     FM271000 15009KT P6SM OVC015
     FM271600 16018G24KT P6SM VCSH SCT025 BKN035=



000
FTUS44 KBRO 261311 AAA
TAFBRO
TAF AMD
KBRO 261311Z 2613/2712 17007KT P6SM BKN035 BKN070 BKN100
     FM261700 15018G25KT P6SM VCSH SCT030 BKN050 OVC250
      TEMPO 2619/2623 5SM -TSRA BKN025CB
     FM270200 14012G18KT P6SM VCSH BKN025 PROB30 2704/2708 4SM -TSRA
      BKN010CB=



000
FTUS44 KBRO 260805 AAC
TAFHRL
TAF AMD
KHRL 260805Z 2608/2706 17016G24KT 6SM BR BKN014
      TEMPO 2608/2612 BKN008
     FM261500 14015G20KT P6SM BKN025
     FM261700 15018G25KT P6SM SCT030 BKN050 OVC250
     FM270200 14012G18KT P6SM BKN015 PROB30 2702/2706 4SM -TSRA
      BKN010CB=



000
FTUS44 KBRO 260606 AAA
TAFMFE
TAF AMD
KMFE 260606Z 2606/2706 12020G27KT P6SM -RA VCSH SCT040 SCT110
     FM261000 13007KT 5SM BR BKN015
     FM261600 14015KT 6SM HZ BKN025
     FM261700 15016G22KT 6SM BR SCT030 BKN050 OVC250
     FM270200 14012G18KT P6SM BKN015 PROB30 2702/2706 4SM -TSRA
      BKN010CB=



000
FTUS44 KBRO 252326
TAFMFE
TAF
KMFE 252326Z 2600/2624 14015KT P6SM BKN040
     FM260400 13010KT P6SM VCTS BKN015CB
     FM261000 13007KT 5SM BR BKN012
     FM261500 14015KT 6SM BR BKN025
     FM261700 15016G22KT 6SM BR SCT030 BKN050 OVC250=



000
FTUS44 KBRO 252326
TAFHRL
TAF
KHRL 252326Z 2600/2624 15015KT P6SM SCT025 OVC250
     FM260300 12010KT P6SM BKN015
     FM261500 14015G20KT P6SM BKN025
     FM261700 15018G25KT P6SM SCT030 BKN050 OVC250=



000
FTUS44 KBRO 252326
TAFBRO
TAF
KBRO 252326Z 2600/2624 13011KT P6SM BKN018
      TEMPO 2600/2602 SCT018 OVC250
     FM261500 14015G20KT P6SM BKN025
     FM261700 15018G25KT P6SM SCT030 BKN050 OVC250=



000
FTUS44 KBRO 251208 AAA
TAFMFE
TAF AMD
KMFE 251208Z 2512/2612 12008KT 3SM HZ SCT011 OVC022
      TEMPO 2512/2515 BKN011
     FM251500 15015KT P6SM BKN025
     FM251800 14015G20KT P6SM SCT025 BKN250
     FM260000 13013KT P6SM BKN250
     FM260300 13014KT P6SM BKN015=



000
FTUS44 KBRO 251204 AAA
TAFBRO
TAF AMD
KBRO 251204Z 2512/2612 14010KT P6SM SCT014 OVC019
     FM251500 15015KT P6SM BKN025
     FM251800 15015G20KT P6SM SCT025 BKN250
     FM260000 15011KT P6SM SCT030 BKN250
     FM260300 12010KT P6SM BKN015=



000
FTUS44 KBRO 251133 CCA
TAFHRL
TAF COR
KHRL 251133Z 2512/2612 15007KT 5SM BR BKN013 OVC019
     FM251500 15015KT P6SM BKN025
     FM251800 15015G20KT P6SM SCT025 BKN250
     FM260300 13014KT P6SM BKN015=



000
FTUS44 KBRO 251120
TAFHRL
TAF
KHRL 251120Z 2512/2612 14008KT 6SM BR FEW016
     FM251500 15015KT P6SM BKN025
     FM251800 15015G20KT P6SM SCT025 BKN250
     FM260300 13014KT P6SM BKN015=



000
FTUS44 KBRO 251120
TAFMFE
TAF
KMFE 251120Z 2512/2612 12007KT 6SM BR BKN010 OVC015
     FM251500 15015KT P6SM BKN025
     FM251800 14015G20KT P6SM SCT025 BKN250
     FM260000 13013KT P6SM BKN250
     FM260300 13014KT P6SM BKN015=



000
FTUS44 KBRO 251120
TAFBRO
TAF
KBRO 251120Z 2512/2612 14010KT P6SM SCT014 OVC021
     FM251500 15015KT P6SM BKN025
     FM251800 15015G20KT P6SM SCT025 BKN250
     FM260000 15011KT P6SM SCT030 BKN250
     FM260300 12010KT P6SM BKN015=



000
FTUS44 KBRO 250818 AAA
TAFMFE
TAF AMD
KMFE 250818Z 2508/2606 15008KT P6SM OVC009
      TEMPO 2509/2512 5SM HZ
     FM251500 15015KT P6SM BKN025
     FM251800 14015G20KT P6SM SCT025 BKN250
     FM260000 13013KT P6SM BKN250
     FM260200 13014KT P6SM BKN015=



000
FTUS44 KBRO 250816 AAA
TAFBRO
TAF AMD
KBRO 250816Z 2508/2606 16011KT P6SM FEW014 OVC021
      TEMPO 2509/2512 5SM HZ BKN017
     FM251500 15015KT P6SM BKN025
     FM251800 15015G20KT P6SM SCT025 BKN250
     FM260000 15011KT P6SM SCT030 BKN250
     FM260300 12010KT P6SM BKN015=



000
FTUS44 KBRO 250540
TAFBRO
TAF
KBRO 250540Z 2506/2606 13012KT P6SM BKN017
      TEMPO 2509/2512 5SM HZ
     FM251500 15015KT P6SM BKN025
     FM251800 15015G20KT P6SM SCT025 BKN250
     FM260000 15011KT P6SM SCT030 BKN250
     FM260300 12010KT P6SM BKN015=



000
FTUS44 KBRO 250540
TAFMFE
TAF
KMFE 250540Z 2506/2606 14009KT P6SM BKN011 OVC022
      TEMPO 2509/2512 5SM HZ OVC015
     FM251500 15015KT P6SM BKN025
     FM251800 14015G20KT P6SM SCT025 BKN250
     FM260000 13013KT P6SM BKN250
     FM260200 13014KT P6SM BKN015=



000
FTUS44 KBRO 250309 AAA
TAFMFE
TAF AMD
KMFE 250309Z 2503/2524 14009KT P6SM SCT050
      TEMPO 2509/2512 5SM HZ OVC015
     FM251500 15015KT P6SM BKN025
     FM251800 14015G20KT P6SM SCT025 BKN250=



    US Dept of Commerce
    National Oceanic and Atmospheric Administration
    National Weather Service
    1325 East West Highway
    Silver Spring, MD 20910
    Page Author: NWS Internet Services Team
Disclaimer
Information Quality
Credits
Glossary
Privacy Policy
Freedom of Information Act (FOIA)
About Us
Career Opportunities